Time;durP1;ratioP1;P1;durP2;ratioP2;P2;SDS_P1;SDS_P2;PMS_P1;PMS_P2;Temp;Humidity;BMP_temperature;BMP_pressure;BME280_temperature;BME280_humidity;BME280_pressure;Samples;Min_cycle;Max_cycle;Signal;HPM_P1;HPM_P2
2021/01/28 00:03:58;;;;;;;76.95;30.35;;;;;;;-0.93;100.00;98696.32;4290689;81;43571;-80
2021/01/28 00:10:00;;;;;;;84.50;32.63;;;;;;;-1.07;100.00;98699.92;4296731;81;43087;-80
2021/01/28 00:16:03;;;;;;;79.53;30.48;;;;;;;-1.21;100.00;98698.75;4304279;81;43008;-80
2021/01/28 00:22:09;;;;;;;81.75;31.57;;;;;;;-1.06;100.00;98692.84;4311755;81;43044;-80
2021/01/28 00:28:13;;;;;;;;;;;;;;;-1.26;100.00;98685.24;4341355;80;28548;-79
2021/01/28 00:34:16;;;;;;;82.47;30.82;;;;;;;-1.22;100.00;98674.69;4384084;80;43050;-79
2021/01/28 00:40:19;;;;;;;79.07;31.37;;;;;;;-1.57;100.00;98670.84;4296731;81;43794;-80
2021/01/28 00:46:21;;;;;;;75.80;29.25;;;;;;;-1.46;100.00;98670.20;4361142;80;44081;-79
2021/01/28 00:52:23;;;;;;;74.25;29.35;;;;;;;-1.47;100.00;98661.96;4340966;80;43679;-79
2021/01/28 00:58:26;;;;;;;77.70;30.08;;;;;;;-1.63;100.00;98660.95;4355639;80;43656;-83
2021/01/28 01:04:30;;;;;;;81.10;30.37;;;;;;;-1.71;100.00;98646.44;4388440;80;28573;-82
2021/01/28 01:10:53;;;;;;;73.95;28.32;;;;;;;-1.71;100.00;98627.50;4410004;80;44100;-82
2021/01/28 01:16:55;;;;;;;76.30;29.90;;;;;;;-1.57;100.00;98627.34;4359191;80;43718;-82
2021/01/28 01:23:00;;;;;;;66.10;27.25;;;;;;;-1.57;100.00;98635.75;4340511;80;43775;-82
2021/01/28 01:29:03;;;;;;;66.00;26.50;;;;;;;-1.56;100.00;98624.22;4359740;80;43244;-80
2021/01/28 01:35:20;;;;;;;72.00;28.02;;;;;;;-1.56;100.00;98627.70;4478407;77;85307;-79
2021/01/28 01:41:30;;;;;;;67.72;28.15;;;;;;;-1.55;100.00;98617.48;4377194;80;43422;-79
2021/01/28 01:47:49;;;;;;;66.60;25.70;;;;;;;-1.79;100.00;98617.41;4378508;80;43359;-79
2021/01/28 01:53:58;;;;;;;71.33;27.58;;;;;;;-1.85;100.00;98613.62;4378419;79;44234;-78
2021/01/28 02:00:14;;;;;;;78.65;28.80;;;;;;;-1.86;100.00;98615.45;4401865;80;43641;-78
2021/01/28 02:06:42;;;;;;;69.10;27.70;;;;;;;-2.04;100.00;98612.91;4389098;80;44138;-80
2021/01/28 02:13:13;;;;;;;68.47;26.60;;;;;;;-2.10;100.00;98596.44;4364927;79;85530;-80
2021/01/28 02:19:56;;;;;;;67.60;25.97;;;;;;;-2.25;100.00;98584.37;4309043;80;42907;-79
2021/01/28 02:26:01;;;;;;;65.62;24.82;;;;;;;-2.44;100.00;98590.22;4290845;81;43770;-79
2021/01/28 02:32:07;;;;;;;63.43;25.03;;;;;;;-2.69;100.00;98590.59;4345044;80;28572;-79
2021/01/28 02:38:13;;;;;;;58.95;23.77;;;;;;;-2.85;100.00;98583.44;4322949;81;32464;-79
2021/01/28 02:44:17;;;;;;;59.88;24.12;;;;;;;-3.05;100.00;98588.91;4307138;80;44092;-79
2021/01/28 02:50:30;;;;;;;73.00;33.63;;;;;;;-3.13;100.00;98590.16;4457409;77;294175;-79
2021/01/28 02:56:32;;;;;;;58.35;23.90;;;;;;;-2.65;100.00;98577.47;4375319;80;44095;-81
2021/01/28 03:02:36;;;;;;;60.30;23.98;;;;;;;-3.14;100.00;98574.05;4417932;79;44076;-80
2021/01/28 03:08:40;;;;;;;57.55;22.73;;;;;;;-3.33;100.00;98566.71;4302264;81;44109;-80
2021/01/28 03:14:54;;;;;;;56.15;22.00;;;;;;;-3.41;100.00;98559.56;4610105;76;85671;-81
2021/01/28 03:20:56;;;;;;;47.15;20.43;;;;;;;-3.78;100.00;98553.52;4513615;77;43789;-79
2021/01/28 03:27:13;;;;;;;55.20;22.02;;;;;;;-3.95;100.00;98559.11;4592298;76;75249;-80
2021/01/28 03:33:20;;;;;;;51.77;20.30;;;;;;;-4.08;100.00;98546.84;4515312;77;44010;-80
2021/01/28 03:39:25;;;;;;;49.25;19.23;;;;;;;-4.22;100.00;98545.08;4490055;77;43728;-79
2021/01/28 03:45:29;;;;;;;44.30;18.23;;;;;;;-4.22;100.00;98534.58;4508213;77;43756;-79
2021/01/28 03:51:31;;;;;;;48.10;17.62;;;;;;;-4.32;100.00;98534.29;4504536;77;43754;-79
2021/01/28 03:57:54;;;;;;;43.80;17.45;;;;;;;-4.45;100.00;98532.84;4513893;78;43266;-79
2021/01/28 04:03:56;;;;;;;48.33;18.17;;;;;;;-4.59;100.00;98526.77;4505966;78;43750;-79
2021/01/28 04:10:16;;;;;;;41.95;17.52;;;;;;;-4.68;100.00;98517.98;4364836;79;85519;-79
2021/01/28 04:16:19;;;;;;;44.75;17.90;;;;;;;-4.81;100.00;98515.69;4305380;80;43794;-80
2021/01/28 04:22:24;;;;;;;53.23;17.93;;;;;;;-4.73;100.00;98529.41;4293907;80;28536;-81
2021/01/28 04:28:28;;;;;;;43.85;18.15;;;;;;;-4.81;100.00;98516.52;4326926;81;43763;-80
2021/01/28 04:34:44;;;;;;;40.65;16.62;;;;;;;-4.80;100.00;98498.97;4594533;76;77911;-81
2021/01/28 04:41:03;;;;;;;48.15;17.35;;;;;;;-5.02;100.00;98487.09;4489614;78;43809;-79
2021/01/28 04:47:09;;;;;;;38.90;14.70;;;;;;;-5.18;100.00;98485.89;4468407;78;44500;-79
2021/01/28 04:53:22;;;;;;;34.13;14.40;;;;;;;-5.14;100.00;98479.88;4467378;78;44314;-81
2021/01/28 04:59:37;;;;;;;36.07;13.87;;;;;;;-5.24;100.00;98476.80;4497834;78;28614;-78
2021/01/28 05:05:40;;;;;;;34.95;14.70;;;;;;;-5.20;100.00;98479.50;4469433;78;44436;-78
2021/01/28 05:11:57;;;;;;;49.35;22.95;;;;;;;-5.15;100.00;98469.05;4449675;78;294991;-78
2021/01/28 05:18:36;;;;;;;37.63;15.70;;;;;;;-4.89;100.00;98461.34;4374581;79;44490;-79
2021/01/28 05:25:02;;;;;;;35.35;15.08;;;;;;;-5.12;100.00;98450.41;4406002;78;44269;-79
2021/01/28 05:31:17;;;;;;;35.17;14.55;;;;;;;-5.44;100.00;98447.70;4401604;79;44453;-79
2021/01/28 05:37:25;;;;;;;35.52;13.83;;;;;;;-5.70;100.00;98453.58;4394557;80;28539;-79
2021/01/28 05:43:44;;;;;;;34.98;14.90;;;;;;;-5.59;100.00;98449.48;4419308;80;28560;-79
2021/01/28 05:49:50;;;;;;;36.05;14.05;;;;;;;-5.89;100.00;98446.90;4399887;80;44481;-79
2021/01/28 05:55:55;;;;;;;35.17;13.85;;;;;;;-5.86;100.00;98435.33;4389094;79;44263;-78
2021/01/28 06:02:25;;;;;;;40.28;16.12;;;;;;;-5.97;100.00;98431.09;4392517;80;44434;-77
2021/01/28 06:09:19;;;;;;;39.75;16.20;;;;;;;-5.84;100.00;98412.94;4528447;76;85173;-79
2021/01/28 06:16:04;;;;;;;32.85;14.47;;;;;;;-5.96;100.00;98413.58;4310737;81;44082;-78
2021/01/28 06:22:25;;;;;;;37.60;14.53;;;;;;;-6.05;100.00;98412.66;4147192;84;44479;-77
2021/01/28 06:28:51;;;;;;;38.95;14.58;;;;;;;-6.25;100.00;98425.77;4147575;84;44455;-78
2021/01/28 06:35:19;;;;;;;36.63;14.10;;;;;;;-6.18;100.00;98415.09;4160551;84;44498;-76
2021/01/28 06:41:56;;;;;;;36.28;14.87;;;;;;;-6.01;100.00;98394.36;4377541;79;85142;-76
2021/01/28 06:48:08;;;;;;;33.58;14.33;;;;;;;-5.97;100.00;98396.22;4304197;81;44326;-75
2021/01/28 06:54:25;;;;;;;;;;;;;;;-5.96;100.00;98400.02;4343170;81;28571;-79
2021/01/28 07:00:37;;;;;;;37.38;14.83;;;;;;;-5.85;100.00;98385.92;4331625;81;44458;-77
2021/01/28 07:06:58;;;;;;;32.63;13.60;;;;;;;-5.76;100.00;98375.09;4322432;81;44417;-76
2021/01/28 07:13:05;;;;;;;33.38;13.30;;;;;;;-5.77;100.00;98385.23;4306987;81;44137;-77
2021/01/28 07:19:28;;;;;;;30.12;12.63;;;;;;;-5.52;100.00;98375.07;4413074;79;85491;-77
2021/01/28 07:25:33;;;;;;;33.18;12.60;;;;;;;-5.39;100.00;98378.67;4281883;81;44145;-76
2021/01/28 07:31:46;;;;;;;29.80;11.97;;;;;;;-5.28;100.00;98357.98;4306157;81;28561;-76
2021/01/28 07:37:52;;;;;;;;;;;;;;;-5.09;100.00;98345.28;4322236;81;28534;-76
2021/01/28 07:44:37;;;;;;;32.23;12.53;;;;;;;-5.02;100.00;98331.09;4291575;82;44089;-77
2021/01/28 07:50:41;;;;;;;31.70;14.50;;;;;;;-4.89;100.00;98331.54;4319179;81;44118;-75
2021/01/28 07:56:47;;;;;;;28.12;11.50;;;;;;;-4.67;100.00;98304.52;4315083;81;43463;-75
2021/01/28 08:03:05;;;;;;;31.15;13.58;;;;;;;-4.52;100.00;98301.70;4313823;81;43786;-77
2021/01/28 08:09:14;;;;;;;30.20;11.53;;;;;;;-4.26;100.00;98285.14;4300202;80;43392;-76
2021/01/28 08:15:20;;;;;;;24.87;11.18;;;;;;;-3.85;100.00;98271.91;4313121;81;43559;-77
2021/01/28 08:21:26;;;;;;;26.40;11.38;;;;;;;-3.58;100.00;98257.72;4346689;81;43288;-77
2021/01/28 08:27:34;;;;;;;25.65;10.68;;;;;;;-3.32;100.00;98248.09;4349220;81;28599;-79
2021/01/28 08:33:40;;;;;;;18.77;9.88;;;;;;;-3.05;100.00;98254.06;4340056;81;44234;-77
2021/01/28 08:39:53;;;;;;;18.07;8.20;;;;;;;-2.75;100.00;98249.16;4326518;81;43930;-76
2021/01/28 08:46:16;;;;;;;25.08;11.50;;;;;;;-2.50;100.00;98259.14;4339431;81;43324;-76
2021/01/28 08:52:18;;;;;;;28.25;13.10;;;;;;;-2.21;100.00;98249.09;4329483;81;43423;-81
2021/01/28 08:58:31;;;;;;;25.32;10.80;;;;;;;-2.00;100.00;98254.63;4341810;81;43213;-78
2021/01/28 09:04:41;;;;;;;13.68;6.40;;;;;;;-1.83;100.00;98248.80;4369560;81;43964;-78
2021/01/28 09:10:46;;;;;;;11.68;5.90;;;;;;;-1.64;100.00;98247.23;4347755;81;43245;-80
2021/01/28 09:17:05;;;;;;;12.13;4.72;;;;;;;-1.43;100.00;98225.55;4344069;81;43249;-81
2021/01/28 09:23:15;;;;;;;9.00;4.20;;;;;;;-1.20;100.00;98218.96;4341302;81;42720;-80
2021/01/28 09:29:25;;;;;;;10.85;4.75;;;;;;;-0.91;100.00;98200.80;4321410;81;43285;-82
2021/01/28 09:35:28;;;;;;;11.83;5.28;;;;;;;-0.67;100.00;98187.89;4344571;81;43263;-80
2021/01/28 09:41:41;;;;;;;9.40;4.20;;;;;;;-0.49;100.00;98170.38;4340364;81;42694;-83
2021/01/28 09:47:55;;;;;;;8.25;4.25;;;;;;;-0.23;100.00;98155.08;4326388;81;42713;-78
2021/01/28 09:54:14;;;;;;;9.05;4.45;;;;;;;-0.01;100.00;98138.29;4326938;81;42774;-79
2021/01/28 10:00:21;;;;;;;10.50;4.25;;;;;;;0.50;100.00;98137.09;4303764;81;43209;-78
2021/01/28 10:06:25;;;;;;;8.45;3.70;;;;;;;1.04;100.00;98138.41;4323046;81;28636;-78
2021/01/28 10:12:27;;;;;;;7.15;3.65;;;;;;;1.45;100.00;98121.48;4332805;81;42688;-79
2021/01/28 10:18:29;;;;;;;8.28;3.87;;;;;;;1.74;100.00;98112.45;4317555;81;42721;-79
2021/01/28 10:24:33;;;;;;;8.73;4.42;;;;;;;1.88;100.00;98102.73;4312800;80;28559;-78
2021/01/28 10:30:35;;;;;;;8.03;4.10;;;;;;;2.06;100.00;98079.64;4323799;80;28666;-78
2021/01/28 10:36:38;;;;;;;9.80;4.72;;;;;;;2.26;100.00;98080.20;4302710;80;28629;-82
2021/01/28 10:42:43;;;;;;;11.45;4.62;;;;;;;2.43;100.00;98051.98;4308527;80;28567;-78
2021/01/28 10:48:47;;;;;;;9.30;4.95;;;;;;;2.56;100.00;98041.89;4304618;81;28595;-75
2021/01/28 10:54:49;;;;;;;10.43;4.30;;;;;;;2.47;100.00;98031.97;4310741;80;28673;-79
2021/01/28 11:00:52;;;;;;;10.05;4.85;;;;;;;2.54;100.00;98022.19;4314066;80;28586;-79
2021/01/28 11:06:55;;;;;;;8.30;4.35;;;;;;;2.56;100.00;98023.31;4311604;80;28616;-80
2021/01/28 11:12:59;;;;;;;7.53;3.85;;;;;;;2.69;99.05;97998.59;4324666;80;28559;-79
2021/01/28 11:19:03;;;;;;;10.58;4.80;;;;;;;2.92;95.27;97995.50;4338172;80;28651;-80
2021/01/28 11:25:10;;;;;;;10.78;4.50;;;;;;;2.96;91.86;97976.00;4314055;80;28540;-82
2021/01/28 11:31:13;;;;;;;9.38;4.80;;;;;;;3.06;91.37;97973.19;4309522;80;29100;-79
2021/01/28 11:37:15;;;;;;;10.03;5.47;;;;;;;3.23;88.70;97954.66;4318812;80;28551;-79
2021/01/28 11:43:17;;;;;;;10.20;5.17;;;;;;;3.22;86.23;97937.91;4319771;80;28657;-77
2021/01/28 11:49:20;;;;;;;11.55;5.33;;;;;;;3.06;85.22;97939.20;4310200;80;28567;-80
2021/01/28 11:55:28;;;;;;;9.05;4.67;;;;;;;3.17;86.63;97935.89;4311876;82;28631;-77
2021/01/28 12:01:31;;;;;;;10.80;4.97;;;;;;;3.27;84.94;97912.84;4321784;80;28616;-80
2021/01/28 12:07:34;;;;;;;11.38;5.97;;;;;;;3.30;90.95;97901.81;4306206;80;28615;-80
2021/01/28 12:13:37;;;;;;;10.95;5.37;;;;;;;3.41;88.06;97881.72;4314720;80;28586;-81
2021/01/28 12:19:39;;;;;;;12.05;6.20;;;;;;;3.40;89.22;97875.30;4313332;80;28597;-80
2021/01/28 12:25:41;;;;;;;13.35;6.72;;;;;;;3.63;89.37;97864.92;4320479;80;28611;-80
2021/01/28 12:31:43;;;;;;;11.68;6.25;;;;;;;3.96;90.30;97851.59;4313660;80;28578;-81
2021/01/28 12:37:47;;;;;;;11.70;6.40;;;;;;;3.91;87.21;97857.56;4312029;80;28666;-80
2021/01/28 12:43:49;;;;;;;14.73;6.28;;;;;;;3.90;86.18;97850.63;4319153;80;28605;-80
2021/01/28 12:49:53;;;;;;;15.23;7.35;;;;;;;4.01;86.62;97839.78;4322317;82;28675;-80
2021/01/28 12:55:55;;;;;;;13.83;7.15;;;;;;;4.01;86.18;97839.27;4351518;80;28552;-79
2021/01/28 13:01:58;;;;;;;14.28;6.37;;;;;;;3.99;87.02;97836.02;4303895;82;28556;-78
2021/01/28 13:08:01;;;;;;;14.70;7.12;;;;;;;3.89;87.33;97827.19;4332026;82;28547;-78
2021/01/28 13:14:03;;;;;;;13.18;6.50;;;;;;;3.75;87.37;97826.52;4274178;82;28560;-78
2021/01/28 13:20:07;;;;;;;14.60;5.75;;;;;;;3.75;87.87;97817.70;4321179;81;28551;-77
2021/01/28 13:26:09;;;;;;;11.88;5.50;;;;;;;3.59;88.02;97802.61;4335317;81;28582;-76
2021/01/28 13:32:11;;;;;;;14.87;6.42;;;;;;;3.39;88.64;97801.94;4346670;81;28578;-76
2021/01/28 13:38:14;;;;;;;12.88;6.45;;;;;;;3.30;90.31;97794.22;4345484;80;28569;-77
2021/01/28 13:44:19;;;;;;;15.70;7.12;;;;;;;3.33;90.50;97784.98;4318784;81;28561;-76
2021/01/28 13:50:26;;;;;;;12.73;6.40;;;;;;;3.34;90.73;97783.98;4329475;81;28534;-76
2021/01/28 13:56:29;;;;;;;15.43;6.97;;;;;;;3.28;91.95;97773.70;4321659;81;28578;-76
2021/01/28 14:02:31;;;;;;;14.40;6.37;;;;;;;3.16;93.15;97768.75;4331296;81;28674;-75
2021/01/28 14:08:35;;;;;;;14.95;7.05;;;;;;;3.05;94.91;97759.64;4344777;81;28602;-76
2021/01/28 14:14:38;;;;;;;14.45;6.83;;;;;;;3.01;96.00;97753.11;4335132;80;28625;-76
2021/01/28 14:20:40;;;;;;;13.98;6.95;;;;;;;3.01;97.25;97757.09;4202709;82;28653;-76
2021/01/28 14:26:43;;;;;;;13.40;6.75;;;;;;;2.99;98.40;97748.53;4179545;83;28653;-76
2021/01/28 14:32:46;;;;;;;14.23;6.70;;;;;;;3.04;97.72;97727.48;4218451;82;28579;-75
2021/01/28 14:38:49;;;;;;;15.60;7.50;;;;;;;3.01;98.70;97729.22;4210941;84;28552;-75
2021/01/28 14:44:51;;;;;;;20.10;8.25;;;;;;;2.93;99.23;97722.33;4256418;83;28988;-76
2021/01/28 14:50:53;;;;;;;18.90;9.35;;;;;;;2.76;100.00;97706.92;4262134;82;28676;-80
2021/01/28 14:56:56;;;;;;;19.15;10.20;;;;;;;2.74;100.00;97702.84;4249756;83;28572;-80
2021/01/28 15:02:59;;;;;;;22.50;9.85;;;;;;;2.67;100.00;97704.72;4250691;83;28542;-78
2021/01/28 15:09:02;;;;;;;20.62;9.58;;;;;;;2.73;100.00;97702.02;4257192;83;28658;-81
2021/01/28 15:15:06;;;;;;;23.92;10.85;;;;;;;2.67;100.00;97694.10;4245052;83;28548;-81
2021/01/28 15:21:10;;;;;;;19.85;10.23;;;;;;;2.63;100.00;97697.69;4265410;82;28711;-82
2021/01/28 15:27:14;;;;;;;22.30;10.15;;;;;;;2.48;100.00;97685.53;4277026;82;28670;-82
2021/01/28 15:33:17;;;;;;;23.60;10.18;;;;;;;2.22;100.00;97674.00;4276160;82;28659;-81
2021/01/28 15:39:19;;;;;;;17.90;9.33;;;;;;;2.18;100.00;97673.31;4265259;82;28589;-81
2021/01/28 15:45:22;;;;;;;26.25;11.45;;;;;;;2.07;100.00;97656.23;4265319;82;29120;-81
2021/01/28 15:51:26;;;;;;;24.95;11.22;;;;;;;2.03;100.00;97647.88;4272643;82;28553;-82
2021/01/28 15:57:28;;;;;;;22.27;10.05;;;;;;;2.04;100.00;97647.38;4271224;82;28568;-80
2021/01/28 16:03:30;;;;;;;23.42;9.98;;;;;;;1.95;100.00;97630.37;4268746;82;28568;-82
2021/01/28 16:09:33;;;;;;;18.40;9.03;;;;;;;2.08;100.00;97616.77;4278583;82;28604;-79
2021/01/28 16:15:36;;;;;;;21.25;10.00;;;;;;;2.19;100.00;97606.02;4265864;82;28657;-79
2021/01/28 16:21:38;;;;;;;19.92;9.28;;;;;;;2.12;100.00;97611.86;4270653;82;28617;-79
2021/01/28 16:27:41;;;;;;;17.73;9.13;;;;;;;2.04;100.00;97600.45;4273009;82;28602;-79
2021/01/28 16:33:43;;;;;;;19.32;8.10;;;;;;;1.98;100.00;97599.99;4265110;82;28633;-81
2021/01/28 16:39:46;;;;;;;21.02;9.08;;;;;;;2.04;100.00;97597.01;4261950;82;28633;-81
2021/01/28 16:45:49;;;;;;;20.55;10.10;;;;;;;2.06;100.00;97585.14;4273683;82;28613;-81
2021/01/28 16:51:52;;;;;;;20.23;9.33;;;;;;;1.95;100.00;97572.56;4290210;82;28613;-81
2021/01/28 16:57:54;;;;;;;23.75;9.65;;;;;;;2.00;100.00;97571.43;4255790;82;28942;-81
2021/01/28 17:03:57;;;;;;;26.02;11.48;;;;;;;2.13;100.00;97566.55;4298210;82;28624;-81
2021/01/28 17:09:59;;;;;;;23.15;9.80;;;;;;;2.19;100.00;97561.73;4264383;82;28631;-80
2021/01/28 17:16:01;;;;;;;25.12;10.68;;;;;;;2.13;100.00;97549.84;4250466;82;28622;-81
2021/01/28 17:22:03;;;;;;;20.68;9.90;;;;;;;1.89;100.00;97546.92;4257689;82;28665;-80
2021/01/28 17:28:06;;;;;;;23.50;11.75;;;;;;;1.96;100.00;97538.40;4282105;82;28577;-82
2021/01/28 17:34:08;;;;;;;23.38;10.55;;;;;;;1.90;100.00;97534.77;4275678;82;28642;-82
2021/01/28 17:40:12;;;;;;;22.65;10.40;;;;;;;1.89;100.00;97533.14;4268258;82;28544;-81
2021/01/28 17:46:14;;;;;;;21.37;9.65;;;;;;;2.03;100.00;97525.10;4265928;82;28555;-78
2021/01/28 17:52:17;;;;;;;18.70;9.10;;;;;;;2.00;100.00;97517.09;4266231;82;28546;-79
2021/01/28 17:58:19;;;;;;;15.48;8.55;;;;;;;2.19;100.00;97511.88;4267506;82;28586;-80
2021/01/28 18:04:21;;;;;;;14.85;7.53;;;;;;;2.27;100.00;97504.16;4265009;82;28608;-80
2021/01/28 18:10:26;;;;;;;15.30;8.05;;;;;;;2.21;100.00;97507.95;4269914;82;28584;-81
2021/01/28 18:16:30;;;;;;;16.37;7.08;;;;;;;2.25;100.00;97504.38;4276562;82;28550;-81
2021/01/28 18:22:32;;;;;;;14.55;7.33;;;;;;;2.28;100.00;97493.85;4175863;84;28683;-80
2021/01/28 18:28:34;;;;;;;14.33;6.78;;;;;;;2.29;100.00;97500.28;4199736;84;28542;-79
2021/01/28 18:34:38;;;;;;;12.93;5.62;;;;;;;2.33;100.00;97498.81;4187433;84;28636;-81
2021/01/28 18:40:40;;;;;;;11.75;6.17;;;;;;;2.42;100.00;97500.67;4199832;83;28668;-80
2021/01/28 18:46:42;;;;;;;11.45;5.75;;;;;;;2.44;100.00;97486.67;4187675;84;28553;-80
2021/01/28 18:52:45;;;;;;;12.75;6.12;;;;;;;2.32;100.00;97486.58;4200908;84;28545;-80
2021/01/28 18:58:47;;;;;;;12.03;6.30;;;;;;;2.26;100.00;97493.27;4199310;83;28584;-79
2021/01/28 19:04:49;;;;;;;13.08;5.80;;;;;;;2.29;100.00;97492.82;4192356;84;28611;-80
2021/01/28 19:10:52;;;;;;;13.43;6.30;;;;;;;2.26;100.00;97495.38;4177367;84;28609;-80
2021/01/28 19:16:54;;;;;;;10.63;5.45;;;;;;;2.15;100.00;97491.59;4185620;82;28556;-80
2021/01/28 19:22:57;;;;;;;13.78;6.97;;;;;;;2.17;100.00;97488.22;4257225;82;28550;-79
2021/01/28 19:28:59;;;;;;;13.80;6.80;;;;;;;1.97;100.00;97479.05;4271202;82;28612;-78
2021/01/28 19:35:03;;;;;;;17.65;8.20;;;;;;;2.05;100.00;97478.00;4264497;82;28618;-79
2021/01/28 19:41:05;;;;;;;16.67;8.50;;;;;;;1.86;100.00;97475.77;4266657;82;28576;-78
2021/01/28 19:47:07;;;;;;;16.05;8.75;;;;;;;1.80;100.00;97476.10;4260662;82;28573;-78
2021/01/28 19:53:11;;;;;;;18.60;8.68;;;;;;;1.77;100.00;97475.21;4270700;82;28590;-78
2021/01/28 19:59:13;;;;;;;20.32;9.58;;;;;;;1.67;100.00;97469.86;4270131;82;28560;-78
2021/01/28 20:05:15;;;;;;;21.55;10.10;;;;;;;1.52;100.00;97457.42;4264328;82;28620;-77
2021/01/28 20:11:17;;;;;;;23.25;10.38;;;;;;;1.46;100.00;97459.08;4267279;82;28653;-79
2021/01/28 20:17:20;;;;;;;23.38;10.58;;;;;;;1.56;100.00;97457.28;4254427;82;28780;-78
2021/01/28 20:23:23;;;;;;;22.75;11.10;;;;;;;1.54;100.00;97458.02;4188938;83;28636;-81
2021/01/28 20:29:28;;;;;;;18.55;9.95;;;;;;;1.49;100.00;97453.34;4187100;84;44878;-76
2021/01/28 20:35:33;;;;;;;22.17;9.17;;;;;;;1.49;100.00;97458.64;4190545;83;34989;-77
2021/01/28 20:41:35;;;;;;;19.32;9.53;;;;;;;1.51;100.00;97450.47;4198955;84;28549;-76
2021/01/28 20:47:37;;;;;;;20.52;9.38;;;;;;;1.49;100.00;97449.38;4185108;84;28691;-76
2021/01/28 20:53:40;;;;;;;19.10;9.13;;;;;;;1.39;100.00;97444.52;4197858;83;28565;-77
2021/01/28 20:59:42;;;;;;;20.05;9.28;;;;;;;1.41;100.00;97448.78;4191804;84;28661;-77
2021/01/28 21:05:44;;;;;;;19.27;8.60;;;;;;;1.52;100.00;97450.27;4190218;83;28613;-77
2021/01/28 21:11:46;;;;;;;16.17;7.87;;;;;;;1.45;100.00;97444.71;4177261;84;28663;-76
2021/01/28 21:17:48;;;;;;;17.27;8.70;;;;;;;1.45;100.00;97446.83;4190261;83;28648;-79
2021/01/28 21:23:51;;;;;;;18.80;8.00;;;;;;;1.45;100.00;97446.83;4173727;84;28546;-75
2021/01/28 21:29:54;;;;;;;18.75;8.58;;;;;;;1.52;100.00;97446.83;4198734;84;28624;-75
2021/01/28 21:35:56;;;;;;;17.52;8.85;;;;;;;1.47;100.00;97443.48;4189861;84;28642;-75
2021/01/28 21:42:00;;;;;;;20.37;9.08;;;;;;;1.34;100.00;97442.20;4184684;84;28634;-77
2021/01/28 21:48:04;;;;;;;18.98;9.03;;;;;;;1.31;100.00;97438.66;4183446;84;28607;-76
2021/01/28 21:54:06;;;;;;;21.65;9.85;;;;;;;1.34;100.00;97448.33;4198968;84;28630;-75
2021/01/28 22:00:10;;;;;;;20.72;10.25;;;;;;;1.39;100.00;97455.11;4188643;83;28647;-76
2021/01/28 22:06:13;;;;;;;19.70;9.90;;;;;;;1.38;100.00;97449.52;4185366;83;28975;-76
2021/01/28 22:12:15;;;;;;;18.85;9.73;;;;;;;1.51;100.00;97453.12;4187246;84;28656;-75
2021/01/28 22:18:17;;;;;;;23.73;11.38;;;;;;;1.53;100.00;97449.24;4199352;84;43685;-76
2021/01/28 22:24:20;;;;;;;20.97;10.55;;;;;;;1.55;100.00;97442.42;4194718;84;44464;-78
2021/01/28 22:30:24;;;;;;;25.52;12.13;;;;;;;1.54;100.00;97451.39;4191740;84;28641;-78
2021/01/28 22:36:28;;;;;;;28.77;12.95;;;;;;;1.65;100.00;97441.45;4192300;84;28596;-78
2021/01/28 22:42:30;;;;;;;24.43;12.63;;;;;;;1.55;100.00;97442.92;4189594;84;28597;-78
2021/01/28 22:48:34;;;;;;;28.65;13.45;;;;;;;1.55;100.00;97443.74;4192653;84;28543;-78
2021/01/28 22:54:36;;;;;;;33.78;15.20;;;;;;;1.51;100.00;97443.84;4192563;84;44116;-78
2021/01/28 23:00:43;;;;;;;32.38;15.85;;;;;;;1.44;100.00;97435.14;4185806;84;28621;-76
2021/01/28 23:06:46;;;;;;;34.05;15.63;;;;;;;1.36;100.00;97435.68;4192409;84;28620;-77
2021/01/28 23:12:49;;;;;;;30.35;14.60;;;;;;;1.42;100.00;97433.22;4196016;84;28636;-78
2021/01/28 23:18:53;;;;;;;34.63;17.60;;;;;;;1.38;100.00;97429.66;4200297;83;28571;-77
2021/01/28 23:24:55;;;;;;;25.95;12.88;;;;;;;1.35;100.00;97426.11;4185345;84;28552;-76
2021/01/28 23:31:00;;;;;;;37.35;18.07;;;;;;;1.36;100.00;97428.27;4196818;84;28557;-77
2021/01/28 23:37:02;;;;;;;34.23;16.75;;;;;;;1.27;100.00;97415.75;4194065;84;28568;-77
2021/01/28 23:43:10;;;;;;;42.62;18.48;;;;;;;1.33;100.00;97413.59;4185942;84;28584;-77
2021/01/28 23:49:12;;;;;;;39.65;17.98;;;;;;;1.30;100.00;97407.41;4186097;84;28640;-77
2021/01/28 23:55:16;;;;;;;40.75;19.27;;;;;;;1.36;100.00;97410.52;4188921;84;43666;-76
